KFMH/FMH METAR and TAF weather

Enter ICAO airport designator
Station Type Date Time Source
KFMH METAR 2019/12/10 05:45 UTC NOAA

KFMH 100545Z 22024G35KT 3SM -RA OVC007 14/14 A2975


Station Type Date Time Source
KFMH Decoded METAR 2019/12/10 05:45 UTC NOAA

Otis Air National Guard Base, MA, United States (KFMH) 41-39N 070-31W
Dec 10, 2019 - 12:45 AM EST / 2019.12.10 0545 UTC
Wind: from the SW (220 degrees) at 28 MPH (24 KT) gusting to 40 MPH (35 KT):0
Visibility: 3 mile(s):0
Sky conditions: overcast
Weather: light rain
Temperature: 57 F (14 C)
Dew Point: 57 F (14 C)
Relative Humidity: 100%
Pressure (altimeter): 29.75 in. Hg (1007 hPa)
ob: KFMH 100545Z 22024G35KT 3SM -RA OVC007 14/14 A2975
cycle: 6

Station Type Date Time Source
KFMH TAF 2019/12/10 06:39 UTC NOAA

TAF KFMH 100537Z 1006/1106 22020G35KT 3SM -RA BR OVC003 WS020/22060KT
FM101000 22016G30KT P6SM OVC008
FM101500 23015G30KT 5SM BR OVC008
FM102000 23013G27KT 4SM -RA BR OVC008
FM102300 24009KT 4SM -RA OVC008
FM110500 32009KT 5SM -RA OVC020

Example: see airport list